Time;durP1;ratioP1;P1;durP2;ratioP2;P2;SDS_P1;SDS_P2;PMS_P1;PMS_P2;Temp;Humidity;BMP_temperature;BMP_pressure;BME280_temperature;BME280_humidity;BME280_pressure;Samples;Min_cycle;Max_cycle;Signal;HPM_P1;HPM_P2
2022/10/21 00:02:38;;;;;;;18.52;14.52;;;13.90;99.90;;;;;;7320637;32;20193;-59
2022/10/21 00:06:40;;;;;;;21.12;15.63;;;13.90;99.90;;;;;;7321613;32;20111;-59
2022/10/21 00:10:42;;;;;;;23.98;15.40;;;13.90;99.90;;;;;;7321080;32;20583;-61
2022/10/21 00:14:44;;;;;;;20.85;14.13;;;13.90;99.90;;;;;;7313556;32;20125;-59
2022/10/21 00:18:47;;;;;;;23.42;13.85;;;13.90;99.90;;;;;;7316715;32;20100;-59
2022/10/21 00:22:48;;;;;;;21.83;13.65;;;13.90;99.90;;;;;;7310214;32;20126;-60
2022/10/21 00:26:50;;;;;;;21.33;13.07;;;13.80;99.90;;;;;;7321471;32;20182;-59
2022/10/21 00:30:52;;;;;;;20.75;12.85;;;13.80;99.90;;;;;;7321228;32;20483;-60
2022/10/21 00:34:54;;;;;;;17.83;12.65;;;13.80;99.90;;;;;;7316659;32;20137;-60
2022/10/21 00:38:56;;;;;;;18.42;12.85;;;13.80;99.90;;;;;;7324200;32;20643;-61
2022/10/21 00:42:58;;;;;;;17.83;11.40;;;13.80;99.90;;;;;;7319181;32;20108;-61
2022/10/21 00:47:16;;;;;;;16.70;12.07;;;13.80;99.90;;;;;;7323180;32;20186;-59
2022/10/21 00:51:18;;;;;;;17.83;11.70;;;13.80;99.90;;;;;;7320125;32;20122;-60
2022/10/21 00:55:21;;;;;;;17.73;10.85;;;13.80;99.90;;;;;;7324815;32;20281;-59
2022/10/21 00:59:28;;;;;;;13.40;10.68;;;13.80;99.90;;;;;;7317365;32;20123;-59
2022/10/21 01:03:32;;;;;;;17.73;10.73;;;13.70;99.90;;;;;;7319503;32;20157;-60
2022/10/21 01:07:33;;;;;;;15.25;11.18;;;13.80;99.90;;;;;;7315722;32;20243;-59
2022/10/21 01:11:44;;;;;;;16.27;10.90;;;13.80;99.90;;;;;;7322405;32;20596;-60
2022/10/21 01:16:13;;;;;;;16.55;10.77;;;13.80;99.90;;;;;;7321597;32;20140;-59
2022/10/21 01:20:43;;;;;;;15.07;11.35;;;13.80;99.90;;;;;;7317590;32;20206;-61
2022/10/21 01:25:22;;;;;;;15.35;10.63;;;13.70;99.90;;;;;;7323604;32;20126;-59
2022/10/21 01:29:58;;;;;;;13.85;9.70;;;13.70;99.90;;;;;;7324366;32;20131;-59
2022/10/21 01:34:18;;;;;;;16.00;10.23;;;13.60;99.90;;;;;;7320054;32;20197;-59
2022/10/21 01:38:37;;;;;;;12.50;10.20;;;13.60;99.90;;;;;;7315919;32;20179;-60
2022/10/21 01:42:53;;;;;;;16.87;10.07;;;13.50;99.90;;;;;;7321168;32;20095;-60
2022/10/21 01:47:21;;;;;;;14.15;10.85;;;13.50;99.90;;;;;;7316932;32;20108;-59
2022/10/21 01:51:25;;;;;;;14.37;10.27;;;13.30;99.90;;;;;;7313279;32;20154;-59
2022/10/21 01:55:29;;;;;;;14.02;10.05;;;13.20;99.90;;;;;;7323739;32;20554;-60
2022/10/21 01:59:32;;;;;;;14.07;9.48;;;13.20;99.90;;;;;;7312231;32;20108;-59
2022/10/21 02:03:40;;;;;;;10.48;7.87;;;13.20;99.90;;;;;;7321105;32;20195;-60
2022/10/21 02:07:42;;;;;;;13.93;7.72;;;13.10;99.90;;;;;;7324969;32;20100;-60
2022/10/21 02:11:49;;;;;;;11.32;7.65;;;13.20;99.90;;;;;;7325153;32;20103;-60
2022/10/21 02:15:58;;;;;;;9.68;6.40;;;13.20;99.90;;;;;;7317653;32;20569;-59
2022/10/21 02:20:04;;;;;;;9.00;5.87;;;13.30;99.90;;;;;;7320537;32;20185;-59
2022/10/21 02:24:06;;;;;;;9.40;6.55;;;13.40;99.90;;;;;;7322483;32;20100;-59
2022/10/21 02:28:08;;;;;;;9.63;5.35;;;13.30;99.90;;;;;;7312557;32;20249;-59
2022/10/21 02:32:13;;;;;;;10.18;5.40;;;13.30;99.90;;;;;;7323741;32;20263;-59
2022/10/21 02:36:59;;;;;;;11.93;5.50;;;13.40;99.90;;;;;;7306981;32;20141;-59
2022/10/21 02:41:04;;;;;;;12.50;5.07;;;13.40;99.90;;;;;;7309711;32;20224;-59
2022/10/21 02:45:07;;;;;;;10.77;5.18;;;13.50;99.90;;;;;;7316341;32;20108;-59
2022/10/21 02:49:09;;;;;;;7.20;4.70;;;13.40;99.90;;;;;;7317388;32;20126;-59
2022/10/21 02:53:12;;;;;;;7.22;4.62;;;13.50;99.90;;;;;;7312537;32;20112;-59
2022/10/21 02:57:14;;;;;;;9.30;4.47;;;13.40;99.90;;;;;;7316516;32;20125;-59
2022/10/21 03:01:16;;;;;;;9.18;4.47;;;13.50;99.90;;;;;;7310451;32;20205;-61
2022/10/21 03:05:17;;;;;;;6.12;4.25;;;13.50;99.90;;;;;;7321677;32;20209;-59
2022/10/21 03:09:19;;;;;;;6.40;4.25;;;13.50;99.90;;;;;;7314839;32;20178;-60
2022/10/21 03:13:22;;;;;;;5.82;4.10;;;13.70;99.90;;;;;;7320110;32;20637;-59
2022/10/21 03:17:23;;;;;;;6.37;4.65;;;13.60;99.90;;;;;;7319012;32;20532;-59
2022/10/21 03:21:26;;;;;;;9.63;4.30;;;13.50;99.90;;;;;;7313120;32;20135;-59
2022/10/21 03:25:27;;;;;;;7.12;4.40;;;13.50;99.90;;;;;;7314893;32;20162;-59
2022/10/21 03:29:35;;;;;;;6.03;3.78;;;13.40;99.90;;;;;;7309654;32;20114;-59
2022/10/21 03:33:37;;;;;;;7.35;4.57;;;13.50;99.90;;;;;;7309341;32;20096;-59
2022/10/21 03:37:39;;;;;;;8.25;4.18;;;13.50;99.90;;;;;;7320876;32;20460;-59
2022/10/21 03:41:40;;;;;;;10.90;5.00;;;13.40;99.90;;;;;;7316651;32;20212;-59
2022/10/21 03:45:42;;;;;;;6.12;4.20;;;13.50;99.90;;;;;;7320498;32;20175;-59
2022/10/21 03:49:44;;;;;;;7.87;3.70;;;13.50;99.90;;;;;;7319727;32;20103;-61
2022/10/21 03:53:45;;;;;;;6.68;3.83;;;13.50;99.90;;;;;;7321253;32;20595;-61
2022/10/21 03:57:47;;;;;;;10.63;4.15;;;13.40;99.90;;;;;;7327394;32;20725;-60
2022/10/21 04:01:49;;;;;;;9.75;4.37;;;13.40;99.90;;;;;;7322110;32;20295;-59
2022/10/21 04:05:51;;;;;;;6.65;3.50;;;13.40;99.90;;;;;;7312623;32;20281;-59
2022/10/21 04:09:53;;;;;;;7.20;4.10;;;13.30;99.90;;;;;;7318805;32;20217;-59
2022/10/21 04:13:54;;;;;;;5.50;3.53;;;13.30;99.90;;;;;;7314613;32;20240;-59
2022/10/21 04:17:56;;;;;;;8.82;4.07;;;13.30;99.90;;;;;;7315964;32;20120;-60
2022/10/21 04:21:58;;;;;;;7.65;3.87;;;13.30;99.90;;;;;;7326180;32;20092;-59
2022/10/21 04:26:00;;;;;;;8.00;3.70;;;13.30;99.90;;;;;;7319819;32;20511;-59
2022/10/21 04:30:02;;;;;;;6.00;3.47;;;13.30;99.90;;;;;;7323590;32;20139;-59
2022/10/21 04:34:04;;;;;;;8.32;3.50;;;13.30;99.90;;;;;;7313792;32;20112;-59
2022/10/21 04:38:06;;;;;;;6.03;3.60;;;13.40;99.90;;;;;;7323759;32;20104;-59
2022/10/21 04:42:08;;;;;;;5.53;3.70;;;13.30;99.90;;;;;;7320810;32;20096;-61
2022/10/21 04:46:13;;;;;;;6.43;3.97;;;13.30;99.90;;;;;;7326938;32;20141;-59
2022/10/21 04:50:15;;;;;;;11.65;4.50;;;13.30;99.90;;;;;;7318308;32;20706;-60
2022/10/21 04:54:16;;;;;;;8.20;3.97;;;13.40;99.90;;;;;;7321350;32;20104;-60
2022/10/21 04:58:19;;;;;;;7.72;4.07;;;13.30;99.90;;;;;;7316556;32;20104;-60
2022/10/21 05:02:23;;;;;;;7.07;3.70;;;13.30;99.90;;;;;;7316010;32;20214;-60
2022/10/21 05:06:26;;;;;;;5.15;3.37;;;13.30;99.90;;;;;;7308995;32;20116;-59
2022/10/21 05:10:29;;;;;;;10.25;3.80;;;13.30;99.90;;;;;;7312908;32;20151;-60
2022/10/21 05:14:31;;;;;;;7.53;3.45;;;13.40;99.90;;;;;;7316515;32;20263;-58
2022/10/21 05:18:32;;;;;;;5.05;3.00;;;13.40;99.90;;;;;;7321264;32;20126;-59
2022/10/21 05:22:35;;;;;;;6.12;3.20;;;13.50;99.90;;;;;;7322097;32;20104;-58
2022/10/21 05:26:37;;;;;;;7.55;3.30;;;13.60;99.90;;;;;;7309543;32;20097;-59
2022/10/21 05:30:39;;;;;;;7.82;3.37;;;13.60;99.90;;;;;;7312550;32;20118;-60
2022/10/21 05:34:42;;;;;;;4.87;2.97;;;13.60;99.90;;;;;;7319391;32;20722;-59
2022/10/21 05:38:43;;;;;;;6.80;3.37;;;13.50;99.90;;;;;;7317070;32;20146;-59
2022/10/21 05:42:45;;;;;;;6.82;3.37;;;13.50;99.90;;;;;;7321774;32;20128;-60
2022/10/21 05:46:47;;;;;;;7.37;3.25;;;13.50;99.90;;;;;;7317873;32;20438;-61
2022/10/21 05:50:52;;;;;;;10.65;3.33;;;13.40;99.90;;;;;;7313422;32;20262;-60
2022/10/21 05:54:53;;;;;;;5.72;3.33;;;13.40;99.90;;;;;;7302125;32;20142;-61
2022/10/21 05:58:55;;;;;;;8.82;3.20;;;13.40;99.90;;;;;;7314871;32;22077;-59
2022/10/21 06:02:57;;;;;;;8.32;3.72;;;13.40;99.90;;;;;;7310912;32;20268;-60
2022/10/21 06:06:58;;;;;;;6.20;3.15;;;13.30;99.90;;;;;;7318504;32;20133;-61
2022/10/21 06:11:03;;;;;;;4.40;2.97;;;13.40;99.90;;;;;;7318663;32;20153;-63
2022/10/21 06:15:05;;;;;;;6.70;2.67;;;13.40;99.90;;;;;;7316604;32;20543;-63
2022/10/21 06:19:07;;;;;;;7.53;3.20;;;13.50;99.90;;;;;;7311693;32;20189;-63
2022/10/21 06:23:11;;;;;;;6.95;3.08;;;13.50;99.90;;;;;;7310088;32;20115;-62
2022/10/21 06:27:13;;;;;;;6.12;2.87;;;13.60;99.90;;;;;;7315598;32;20112;-62
2022/10/21 06:31:17;;;;;;;6.97;2.95;;;13.60;99.90;;;;;;7320250;32;20846;-62
2022/10/21 06:35:19;;;;;;;4.85;3.10;;;13.70;99.90;;;;;;7315344;32;20128;-63
2022/10/21 06:39:21;;;;;;;4.80;2.80;;;13.70;99.90;;;;;;7310575;32;20906;-63
2022/10/21 06:43:22;;;;;;;5.68;3.10;;;13.70;99.90;;;;;;7313210;32;20173;-63
2022/10/21 06:47:24;;;;;;;6.85;3.12;;;13.60;99.90;;;;;;7310730;32;20133;-64
2022/10/21 06:51:28;;;;;;;5.00;2.50;;;13.80;99.90;;;;;;7314037;32;20253;-63
2022/10/21 06:55:29;;;;;;;6.28;2.83;;;13.70;99.90;;;;;;7313443;32;20125;-62
2022/10/21 06:59:31;;;;;;;6.60;2.70;;;13.80;99.90;;;;;;7315766;32;20194;-62
2022/10/21 07:03:33;;;;;;;6.60;2.97;;;13.80;99.90;;;;;;7311989;32;20112;-64
2022/10/21 07:07:35;;;;;;;4.40;2.60;;;13.90;99.90;;;;;;7310766;32;20120;-62
2022/10/21 07:11:36;;;;;;;7.12;3.03;;;14.00;99.90;;;;;;7316710;32;20107;-63
2022/10/21 07:15:38;;;;;;;5.37;2.30;;;14.10;99.90;;;;;;7314523;32;20112;-63
2022/10/21 07:19:40;;;;;;;6.43;2.40;;;14.10;99.90;;;;;;7317979;32;20703;-61
2022/10/21 07:23:44;;;;;;;7.35;2.80;;;14.10;99.90;;;;;;7310589;32;20225;-62
2022/10/21 07:27:47;;;;;;;6.78;3.03;;;14.20;99.90;;;;;;7303531;32;20196;-62
2022/10/21 07:31:49;;;;;;;5.45;3.00;;;14.20;99.90;;;;;;7320372;32;20210;-63
2022/10/21 07:36:00;;;;;;;6.00;2.62;;;14.30;99.90;;;;;;7313682;32;20602;-62
2022/10/21 07:40:04;;;;;;;5.40;3.03;;;14.40;99.90;;;;;;7317104;32;20280;-61
2022/10/21 07:44:07;;;;;;;12.45;3.15;;;14.40;99.90;;;;;;7316754;32;20222;-61
2022/10/21 07:48:09;;;;;;;9.32;2.90;;;14.50;99.90;;;;;;7319628;32;20817;-63
2022/10/21 07:52:10;;;;;;;9.40;3.08;;;14.50;99.90;;;;;;7313868;32;20256;-63
2022/10/21 07:56:28;;;;;;;5.95;2.85;;;14.60;99.90;;;;;;7314862;32;20260;-62
2022/10/21 08:00:30;;;;;;;13.55;3.22;;;14.60;99.90;;;;;;7322945;32;20222;-62
2022/10/21 08:04:32;;;;;;;7.82;2.65;;;14.50;99.90;;;;;;7318681;32;20323;-63
2022/10/21 08:08:35;;;;;;;8.35;3.55;;;14.50;99.90;;;;;;7315599;32;20206;-63
2022/10/21 08:12:37;;;;;;;4.60;2.78;;;14.50;99.90;;;;;;7315848;32;20230;-63
2022/10/21 08:16:39;;;;;;;5.85;3.17;;;14.50;99.90;;;;;;7315219;32;20104;-63
2022/10/21 08:20:42;;;;;;;6.30;3.55;;;14.50;99.90;;;;;;7321172;32;20104;-62
2022/10/21 08:24:44;;;;;;;7.22;2.85;;;14.40;99.90;;;;;;7313343;32;20146;-62
2022/10/21 08:28:46;;;;;;;5.47;3.40;;;14.50;99.90;;;;;;7315875;32;20761;-62
2022/10/21 08:32:47;;;;;;;7.55;3.37;;;14.50;99.90;;;;;;7319474;32;20120;-63
2022/10/21 08:36:49;;;;;;;8.18;3.75;;;14.50;99.90;;;;;;7318993;32;20141;-62
2022/10/21 08:40:51;;;;;;;7.55;3.50;;;14.50;99.90;;;;;;7318968;32;20543;-64
2022/10/21 08:45:02;;;;;;;8.85;3.85;;;14.50;99.90;;;;;;7316556;32;20134;-63
2022/10/21 08:49:26;;;;;;;7.72;4.10;;;14.50;99.90;;;;;;7312897;32;20218;-63
2022/10/21 08:53:39;;;;;;;8.85;3.92;;;14.50;99.90;;;;;;7318040;32;20123;-62
2022/10/21 08:57:41;;;;;;;12.20;4.90;;;14.50;99.90;;;;;;7312303;32;20611;-63
2022/10/21 09:01:53;;;;;;;9.32;4.32;;;14.50;99.90;;;;;;7310529;32;20206;-63
2022/10/21 09:06:41;;;;;;;10.65;4.62;;;14.60;99.90;;;;;;7333038;32;20483;-64
2022/10/21 09:11:27;;;;;;;11.40;4.30;;;14.60;99.90;;;;;;7305883;32;20210;-63
2022/10/21 09:15:51;;;;;;;6.80;4.10;;;14.60;99.90;;;;;;7307907;32;20190;-65
2022/10/21 09:20:05;;;;;;;7.57;4.32;;;14.70;99.90;;;;;;7315712;32;20132;-62
2022/10/21 09:24:23;;;;;;;7.07;4.55;;;14.80;99.90;;;;;;7314663;32;20127;-63
2022/10/21 09:28:26;;;;;;;7.50;3.83;;;14.70;99.90;;;;;;7317480;32;20233;-63
2022/10/21 09:32:33;;;;;;;9.65;4.40;;;14.80;99.90;;;;;;7315589;32;20228;-64
2022/10/21 09:36:37;;;;;;;13.20;5.00;;;14.80;99.90;;;;;;7313651;32;20127;-63
2022/10/21 09:40:39;;;;;;;11.45;4.85;;;14.80;99.90;;;;;;7313949;32;20107;-62
2022/10/21 09:44:43;;;;;;;9.70;4.28;;;14.90;99.90;;;;;;7319164;32;20103;-63
2022/10/21 09:48:51;;;;;;;9.60;4.30;;;14.90;99.90;;;;;;7313267;32;20543;-64
2022/10/21 09:53:20;;;;;;;7.00;4.03;;;15.00;99.90;;;;;;7316584;32;20221;-63
2022/10/21 09:57:50;;;;;;;7.53;4.10;;;14.90;99.90;;;;;;7313907;32;20206;-62
2022/10/21 10:01:54;;;;;;;8.07;3.37;;;14.90;99.90;;;;;;7316729;32;20127;-64
2022/10/21 10:05:56;;;;;;;9.00;3.58;;;14.80;99.90;;;;;;7316798;32;20142;-63
2022/10/21 10:09:58;;;;;;;6.50;2.97;;;14.90;99.90;;;;;;7315412;32;20126;-62
2022/10/21 10:14:23;;;;;;;6.32;3.75;;;14.80;99.90;;;;;;7315079;32;20172;-62
2022/10/21 10:18:25;;;;;;;7.12;3.47;;;14.80;99.90;;;;;;7319613;32;20210;-64
2022/10/21 10:22:27;;;;;;;8.98;3.80;;;14.90;99.90;;;;;;7316641;32;20191;-64
2022/10/21 10:26:41;;;;;;;6.75;3.50;;;14.90;99.90;;;;;;7316992;32;20239;-62
2022/10/21 10:30:43;;;;;;;9.90;4.07;;;14.80;99.90;;;;;;7310725;32;20202;-62
2022/10/21 10:34:59;;;;;;;6.95;3.72;;;14.80;99.90;;;;;;7314975;32;20138;-64
2022/10/21 10:39:02;;;;;;;7.75;3.62;;;14.80;99.90;;;;;;7321809;32;20149;-63
2022/10/21 10:43:27;;;;;;;9.15;4.03;;;14.80;99.90;;;;;;7322990;32;20462;-63
2022/10/21 10:47:38;;;;;;;7.00;3.60;;;14.70;99.90;;;;;;7318885;32;20210;-62
2022/10/21 10:51:41;;;;;;;6.12;4.20;;;14.80;99.90;;;;;;7321266;32;20494;-61
2022/10/21 10:55:44;;;;;;;5.85;3.83;;;14.60;99.90;;;;;;7312769;32;20221;-65
2022/10/21 11:00:02;;;;;;;7.62;4.32;;;14.70;99.90;;;;;;7321924;32;20578;-62
2022/10/21 11:04:17;;;;;;;6.37;4.12;;;14.70;99.90;;;;;;7320026;32;20195;-62
2022/10/21 11:08:31;;;;;;;6.40;3.87;;;14.80;99.90;;;;;;7318366;32;20115;-62
2022/10/21 11:12:35;;;;;;;8.95;4.47;;;14.90;99.90;;;;;;7317167;32;20160;-65
2022/10/21 11:16:59;;;;;;;7.25;3.97;;;14.90;99.90;;;;;;7323025;32;20633;-64
2022/10/21 11:21:17;;;;;;;8.07;4.35;;;14.90;99.90;;;;;;7322773;32;20211;-62
2022/10/21 11:25:24;;;;;;;9.07;4.37;;;14.90;99.90;;;;;;7323288;32;20123;-62
2022/10/21 11:29:48;;;;;;;9.95;4.32;;;15.00;99.90;;;;;;7321155;32;20233;-64
2022/10/21 11:33:58;;;;;;;7.53;4.30;;;15.10;99.90;;;;;;7318176;32;20203;-64
2022/10/21 11:38:30;;;;;;;7.70;3.80;;;15.20;99.90;;;;;;7320597;32;20153;-63
2022/10/21 11:42:40;;;;;;;11.45;3.58;;;15.30;99.90;;;;;;7321085;32;20146;-66
2022/10/21 11:47:00;;;;;;;10.80;3.92;;;15.50;99.90;;;;;;7322248;32;20111;-63
2022/10/21 11:51:20;;;;;;;6.90;3.70;;;15.60;99.90;;;;;;7314936;32;20104;-63
2022/10/21 11:55:52;;;;;;;8.15;4.15;;;15.80;99.90;;;;;;7308059;32;20221;-64
2022/10/21 11:59:56;;;;;;;5.97;3.03;;;15.80;99.90;;;;;;7310682;32;20264;-64
2022/10/21 12:04:20;;;;;;;6.68;3.42;;;16.00;99.90;;;;;;7315553;32;20155;-65
2022/10/21 12:08:59;;;;;;;5.68;3.28;;;16.10;99.90;;;;;;7310492;32;20737;-63
2022/10/21 12:13:23;;;;;;;7.22;3.25;;;16.30;99.90;;;;;;7296032;32;20758;-63
2022/10/21 12:17:25;;;;;;;5.37;2.62;;;16.50;99.90;;;;;;7314350;32;20345;-63
2022/10/21 12:21:31;;;;;;;6.03;2.55;;;16.60;99.90;;;;;;7325919;32;20142;-65
2022/10/21 12:25:36;;;;;;;6.43;1.92;;;16.80;99.90;;;;;;7312987;32;20222;-63
2022/10/21 12:29:47;;;;;;;3.12;1.70;;;17.00;99.90;;;;;;7311007;32;22072;-62
2022/10/21 12:33:49;;;;;;;4.85;2.00;;;17.10;99.90;;;;;;7317260;32;20115;-64
2022/10/21 12:37:51;;;;;;;5.62;1.58;;;17.40;99.90;;;;;;7315746;32;20409;-64
2022/10/21 12:42:04;;;;;;;3.05;1.50;;;17.40;99.90;;;;;;7319510;32;20257;-63
2022/10/21 12:46:09;;;;;;;3.10;1.58;;;17.50;99.90;;;;;;7316580;32;20223;-63
2022/10/21 12:50:24;;;;;;;5.45;1.62;;;17.60;99.90;;;;;;7318139;32;20541;-64
2022/10/21 12:54:29;;;;;;;2.70;1.45;;;17.80;99.90;;;;;;7318900;32;20674;-63
2022/10/21 12:58:36;;;;;;;6.82;1.80;;;17.80;99.90;;;;;;7313349;32;20155;-63
2022/10/21 13:03:05;;;;;;;3.85;1.70;;;17.70;99.90;;;;;;7318902;32;20104;-62
2022/10/21 13:07:15;;;;;;;3.85;1.60;;;17.80;99.90;;;;;;7320416;32;20130;-62
2022/10/21 13:11:32;;;;;;;3.35;1.98;;;17.80;99.90;;;;;;7317995;32;20424;-62
2022/10/21 13:15:45;;;;;;;6.05;1.92;;;17.70;99.90;;;;;;7320601;32;20229;-61
2022/10/21 13:19:52;;;;;;;5.62;2.08;;;17.80;99.90;;;;;;7319299;32;20116;-62
2022/10/21 13:23:58;;;;;;;5.68;1.60;;;17.90;99.90;;;;;;7318051;32;20200;-61
2022/10/21 13:28:18;;;;;;;3.35;1.87;;;18.00;99.90;;;;;;7323990;32;20154;-61
2022/10/21 13:32:21;;;;;;;5.35;1.83;;;17.90;99.90;;;;;;7315283;32;20111;-61
2022/10/21 13:36:34;;;;;;;4.10;1.73;;;17.80;99.90;;;;;;7316555;32;20344;-62
2022/10/21 13:40:45;;;;;;;3.62;1.48;;;17.90;99.90;;;;;;7318388;32;20111;-62
2022/10/21 13:44:52;;;;;;;5.05;1.58;;;17.80;99.90;;;;;;7311885;32;20111;-62
2022/10/21 13:48:53;;;;;;;;;;;17.70;99.90;;;;;;7310325;32;20163;-62
2022/10/21 13:52:55;;;;;;;6.53;1.80;;;17.70;99.90;;;;;;7317525;32;20033;-63
2022/10/21 13:57:05;;;;;;;5.60;1.37;;;17.90;99.90;;;;;;7319139;32;20238;-62
2022/10/21 14:01:10;;;;;;;4.43;1.45;;;18.30;99.90;;;;;;7314905;32;20107;-62
2022/10/21 14:05:33;;;;;;;6.62;1.62;;;18.50;99.90;;;;;;7312117;32;20130;-62
2022/10/21 14:09:40;;;;;;;3.95;1.50;;;18.30;99.90;;;;;;7310944;32;20140;-63
2022/10/21 14:13:43;;;;;;;7.30;1.85;;;18.20;99.90;;;;;;7311917;32;20135;-64
2022/10/21 14:17:55;;;;;;;6.10;1.15;;;18.20;99.90;;;;;;7311263;32;20783;-62
2022/10/21 14:21:59;;;;;;;5.62;1.35;;;18.30;99.90;;;;;;7312593;32;20613;-65
2022/10/21 14:26:07;;;;;;;6.15;1.15;;;18.40;99.90;;;;;;7314735;32;20135;-62
2022/10/21 14:30:26;;;;;;;5.00;1.30;;;18.40;99.90;;;;;;7307490;32;20108;-63
2022/10/21 14:34:31;;;;;;;2.87;1.10;;;18.30;99.90;;;;;;7309955;32;20222;-62
2022/10/21 14:38:43;;;;;;;3.28;0.90;;;18.40;99.90;;;;;;7307161;32;20240;-62
2022/10/21 14:42:45;;;;;;;4.50;1.10;;;18.30;99.90;;;;;;7307499;32;20198;-62
2022/10/21 14:46:53;;;;;;;2.45;1.20;;;18.30;99.90;;;;;;7302789;32;20127;-62
2022/10/21 14:51:01;;;;;;;4.72;1.15;;;18.20;99.90;;;;;;7318608;32;20206;-64
2022/10/21 14:55:15;;;;;;;2.62;1.17;;;18.10;99.90;;;;;;7309276;32;20116;-63
2022/10/21 14:59:41;;;;;;;6.87;1.12;;;18.20;99.90;;;;;;7298860;32;20246;-65
2022/10/21 15:03:46;;;;;;;2.58;1.20;;;18.00;99.90;;;;;;7308370;32;20257;-61
2022/10/21 15:07:47;;;;;;;2.92;1.17;;;17.80;99.90;;;;;;7308451;32;20137;-63
2022/10/21 15:11:49;;;;;;;3.08;0.95;;;17.70;99.90;;;;;;7312794;32;20119;-61
2022/10/21 15:15:53;;;;;;;6.20;1.15;;;17.70;99.90;;;;;;7309946;32;20142;-62
2022/10/21 15:19:55;;;;;;;2.90;1.15;;;17.40;99.90;;;;;;7313607;32;20221;-64
2022/10/21 15:23:58;;;;;;;5.82;1.40;;;17.60;99.90;;;;;;7319324;32;20184;-65
2022/10/21 15:28:11;;;;;;;3.97;1.20;;;17.50;99.90;;;;;;7320926;32;20115;-61
2022/10/21 15:32:17;;;;;;;4.60;1.30;;;17.50;99.90;;;;;;7317851;32;20116;-63
2022/10/21 15:36:20;;;;;;;2.42;1.20;;;17.40;99.90;;;;;;7313071;32;20218;-61
2022/10/21 15:40:22;;;;;;;1.90;1.37;;;17.20;99.90;;;;;;7321012;32;20615;-63
2022/10/21 15:44:26;;;;;;;4.47;1.10;;;17.10;99.90;;;;;;7320202;32;20175;-61
2022/10/21 15:48:28;;;;;;;2.85;1.27;;;17.00;99.90;;;;;;7320473;32;20230;-62
2022/10/21 15:52:30;;;;;;;6.03;1.98;;;16.90;99.90;;;;;;7316553;32;20141;-62
2022/10/21 15:56:32;;;;;;;3.72;1.62;;;16.90;99.90;;;;;;7318997;32;20116;-61
2022/10/21 16:00:34;;;;;;;3.87;1.37;;;16.70;99.90;;;;;;7319564;32;20195;-62
2022/10/21 16:04:41;;;;;;;2.87;1.20;;;16.50;99.90;;;;;;7328527;32;20116;-62
2022/10/21 16:08:43;;;;;;;1.42;1.10;;;16.40;99.90;;;;;;7324920;32;20618;-62
2022/10/21 16:12:46;;;;;;;2.25;1.23;;;16.30;99.90;;;;;;7315486;32;20120;-64
2022/10/21 16:16:51;;;;;;;4.07;1.50;;;16.20;99.90;;;;;;7313887;32;20116;-63
2022/10/21 16:20:53;;;;;;;3.70;1.92;;;16.00;99.90;;;;;;7319654;32;20191;-62
2022/10/21 16:24:55;;;;;;;3.45;1.52;;;16.00;99.90;;;;;;7314499;32;20234;-62
2022/10/21 16:28:57;;;;;;;3.65;1.55;;;15.90;99.90;;;;;;7320256;32;20112;-62
2022/10/21 16:32:59;;;;;;;1.90;1.12;;;15.80;99.90;;;;;;7314897;32;20998;-61
2022/10/21 16:37:00;;;;;;;4.82;1.33;;;15.70;99.90;;;;;;7323110;32;20172;-60
2022/10/21 16:41:07;;;;;;;5.10;1.67;;;15.50;99.90;;;;;;7320310;32;20129;-60
2022/10/21 16:45:09;;;;;;;4.50;1.92;;;15.50;99.90;;;;;;7319900;32;20108;-59
2022/10/21 16:49:13;;;;;;;4.70;1.50;;;15.40;99.90;;;;;;7323272;32;20769;-60
2022/10/21 16:53:16;;;;;;;3.25;1.77;;;15.30;99.90;;;;;;7325524;32;20220;-61
2022/10/21 16:57:18;;;;;;;3.50;1.70;;;15.30;99.90;;;;;;7318632;32;20471;-60
2022/10/21 17:01:22;;;;;;;3.12;1.80;;;15.20;99.90;;;;;;7315876;32;20138;-59
2022/10/21 17:05:24;;;;;;;7.87;1.90;;;15.10;99.90;;;;;;7312150;32;20172;-63
2022/10/21 17:09:26;;;;;;;4.82;2.40;;;15.00;99.90;;;;;;7322940;32;20142;-63
2022/10/21 17:13:28;;;;;;;3.80;1.87;;;15.00;99.90;;;;;;7314591;32;20125;-63
2022/10/21 17:17:30;;;;;;;3.53;1.70;;;14.90;99.90;;;;;;7313896;32;20293;-62
2022/10/21 17:21:32;;;;;;;5.43;1.42;;;14.80;99.90;;;;;;7318570;32;20146;-63
2022/10/21 17:25:34;;;;;;;4.18;1.90;;;14.80;99.90;;;;;;7315692;32;20226;-62
2022/10/21 17:29:36;;;;;;;3.67;1.77;;;14.80;99.90;;;;;;7318094;32;20266;-60
2022/10/21 17:33:37;;;;;;;5.00;2.08;;;14.70;99.90;;;;;;7315735;32;20115;-59
2022/10/21 17:37:39;;;;;;;4.60;1.90;;;14.70;99.90;;;;;;7315802;32;20257;-59
2022/10/21 17:41:41;;;;;;;4.43;1.80;;;14.70;99.90;;;;;;7317539;32;20135;-59
2022/10/21 17:45:43;;;;;;;6.12;2.58;;;14.50;99.90;;;;;;7313595;32;20186;-60
2022/10/21 17:49:45;;;;;;;3.50;2.17;;;14.50;99.90;;;;;;7315083;32;20111;-59
2022/10/21 17:53:51;;;;;;;3.20;2.03;;;14.50;99.90;;;;;;7315507;32;20134;-60
2022/10/21 17:57:53;;;;;;;4.67;2.40;;;14.40;99.90;;;;;;7316524;32;20130;-60
2022/10/21 18:01:54;;;;;;;8.75;2.10;;;14.40;99.90;;;;;;7319667;32;20770;-61
2022/10/21 18:05:56;;;;;;;4.85;2.50;;;14.40;99.90;;;;;;7321410;32;20293;-62
2022/10/21 18:09:58;;;;;;;9.82;5.37;;;14.30;99.90;;;;;;7320480;32;20106;-62
2022/10/21 18:13:59;;;;;;;6.75;3.55;;;14.40;99.90;;;;;;7310095;32;20126;-62
2022/10/21 18:18:01;;;;;;;8.60;3.35;;;14.30;99.90;;;;;;7312004;32;20149;-62
2022/10/21 18:22:03;;;;;;;6.75;4.50;;;14.40;99.90;;;;;;7312906;32;20104;-64
2022/10/21 18:26:08;;;;;;;7.87;3.67;;;14.30;99.90;;;;;;7311900;32;20108;-63
2022/10/21 18:30:10;;;;;;;5.72;3.33;;;14.20;99.90;;;;;;7310667;32;20103;-63
2022/10/21 18:34:12;;;;;;;8.32;3.08;;;14.20;99.90;;;;;;7319905;32;20130;-63
2022/10/21 18:38:14;;;;;;;4.72;2.62;;;14.20;99.90;;;;;;7319278;32;20189;-62
2022/10/21 18:42:17;;;;;;;7.35;2.85;;;14.20;99.90;;;;;;7319607;32;20214;-63
2022/10/21 18:46:19;;;;;;;4.43;2.65;;;14.20;99.90;;;;;;7315949;32;20125;-62
2022/10/21 18:50:21;;;;;;;5.22;2.67;;;14.10;99.90;;;;;;7322338;32;20116;-61
2022/10/21 18:54:22;;;;;;;7.28;2.83;;;14.10;99.90;;;;;;7322166;32;20153;-61
2022/10/21 18:58:24;;;;;;;6.93;3.08;;;14.10;99.90;;;;;;7317094;32;20281;-61
2022/10/21 19:02:26;;;;;;;5.85;3.10;;;14.10;99.90;;;;;;7323224;32;20253;-63
2022/10/21 19:06:38;;;;;;;6.15;3.03;;;14.10;99.90;;;;;;7324831;32;20135;-62
2022/10/21 19:10:41;;;;;;;7.20;3.10;;;14.00;99.90;;;;;;7316856;32;20111;-64
2022/10/21 19:14:43;;;;;;;4.93;2.55;;;14.00;99.90;;;;;;7321813;32;20884;-63
2022/10/21 19:18:46;;;;;;;5.55;2.87;;;14.10;99.90;;;;;;7313543;32;20534;-65
2022/10/21 19:22:49;;;;;;;7.07;3.00;;;14.10;99.90;;;;;;7318334;32;20115;-63
2022/10/21 19:26:53;;;;;;;4.72;2.70;;;14.00;99.90;;;;;;7321376;32;20131;-62
2022/10/21 19:30:54;;;;;;;5.78;2.90;;;13.90;99.90;;;;;;7318082;32;20142;-63
2022/10/21 19:34:56;;;;;;;7.18;2.92;;;13.90;99.90;;;;;;7314788;32;20217;-64
2022/10/21 19:38:58;;;;;;;5.80;2.92;;;13.90;99.90;;;;;;7313804;32;20116;-62
2022/10/21 19:42:59;;;;;;;3.80;2.65;;;13.80;99.90;;;;;;7314459;32;20138;-60
2022/10/21 19:47:01;;;;;;;5.82;3.37;;;13.80;99.90;;;;;;7312386;32;20740;-59
2022/10/21 19:51:04;;;;;;;5.37;3.90;;;13.70;99.90;;;;;;7316064;32;20133;-60
2022/10/21 19:55:06;;;;;;;7.87;3.42;;;13.60;99.90;;;;;;7316785;32;20107;-61
2022/10/21 19:59:09;;;;;;;6.93;4.55;;;13.50;99.90;;;;;;7317600;32;20562;-59
2022/10/21 20:03:11;;;;;;;8.05;4.50;;;13.50;99.90;;;;;;7313520;32;20108;-59
2022/10/21 20:07:12;;;;;;;5.20;3.47;;;13.50;99.90;;;;;;7315593;32;20111;-60
2022/10/21 20:11:17;;;;;;;8.95;3.20;;;13.40;99.90;;;;;;7317077;32;20113;-60
2022/10/21 20:15:19;;;;;;;8.15;3.20;;;13.50;99.90;;;;;;7316391;32;20237;-57
2022/10/21 20:19:21;;;;;;;4.95;2.50;;;13.40;99.90;;;;;;7313293;32;20178;-62
2022/10/21 20:23:24;;;;;;;10.50;4.00;;;13.40;99.90;;;;;;7316263;32;20141;-60
2022/10/21 20:27:26;;;;;;;8.27;3.60;;;13.40;99.90;;;;;;7312961;32;20508;-60
2022/10/21 20:31:28;;;;;;;7.05;3.30;;;13.40;99.90;;;;;;7314382;32;20615;-59
2022/10/21 20:35:30;;;;;;;7.97;3.10;;;13.40;99.90;;;;;;7317421;32;20115;-58
2022/10/21 20:39:31;;;;;;;8.15;3.12;;;13.50;99.90;;;;;;7313324;32;20142;-60
2022/10/21 20:43:35;;;;;;;5.10;2.78;;;13.40;99.90;;;;;;7318871;32;20225;-62
2022/10/21 20:47:37;;;;;;;7.35;2.10;;;13.50;99.90;;;;;;7315294;32;20645;-61
2022/10/21 20:51:43;;;;;;;7.60;2.83;;;13.50;99.90;;;;;;7313954;32;20535;-60
2022/10/21 20:55:52;;;;;;;8.32;2.67;;;13.50;99.90;;;;;;7312395;32;20112;-62
2022/10/21 20:59:54;;;;;;;3.85;2.55;;;13.40;99.90;;;;;;7312582;32;20472;-61
2022/10/21 21:03:58;;;;;;;8.45;2.67;;;13.40;99.90;;;;;;7316877;32;20816;-61
2022/10/21 21:08:00;;;;;;;9.15;2.70;;;13.40;99.90;;;;;;7309278;32;20132;-61
2022/10/21 21:12:02;;;;;;;7.40;2.37;;;13.40;99.90;;;;;;7315799;32;20632;-60
2022/10/21 21:16:07;;;;;;;6.15;4.57;;;13.30;99.90;;;;;;7315804;32;20111;-59
2022/10/21 21:20:09;;;;;;;6.28;2.87;;;13.30;99.90;;;;;;7316167;32;20188;-59